Time;durP1;ratioP1;P1;durP2;ratioP2;P2;SDS_P1;SDS_P2;PMS_P1;PMS_P2;Temp;Humidity;BMP_temperature;BMP_pressure;BME280_temperature;BME280_humidity;BME280_pressure;Samples;Min_cycle;Max_cycle;Signal;HPM_P1;HPM_P2
2023/10/10 00:00:27;;;;;;;;;;;;;;;12.69;67.37;95589.19;5095569;28;968;-58
2023/10/10 00:02:53;;;;;;;;;;;;;;;12.55;68.38;95592.47;5095542;28;953;-58
2023/10/10 00:05:30;;;;;;;;;;;;;;;12.37;69.44;95595.28;5095304;28;1985;-58
2023/10/10 00:07:59;;;;;;;;;;;;;;;12.28;69.74;95593.56;5095476;28;1044;-58
2023/10/10 00:10:27;;;;;;;;;;;;;;;12.42;69.01;95582.19;5095063;28;1031;-58
2023/10/10 00:12:54;;;;;;;;;;;;;;;12.46;68.81;95580.03;5095011;28;1036;-59
2023/10/10 00:15:23;;;;;;;;;;;;;;;12.52;68.79;95571.38;5095180;28;1099;-58
2023/10/10 00:17:50;;;;;;;;;;;;;;;12.63;68.23;95571.03;5095200;28;1314;-59
2023/10/10 00:20:20;;;;;;;;;;;;;;;12.34;69.57;95568.78;5095024;28;1048;-59
2023/10/10 00:22:48;;;;;;;;;;;;;;;12.18;69.38;95569.56;5095119;28;979;-58
2023/10/10 00:25:14;;;;;;;;;;;;;;;12.19;69.16;95565.03;5094978;28;2001;-59
2023/10/10 00:27:40;;;;;;;;;;;;;;;12.35;68.58;95559.75;5094988;28;956;-58
2023/10/10 00:30:06;;;;;;;;;;;;;;;12.22;69.32;95565.56;5094718;28;991;-59
2023/10/10 00:32:37;;;;;;;;;;;;;;;12.16;69.77;95565.34;5094609;28;1127;-59
2023/10/10 00:35:06;;;;;;;;;;;;;;;12.10;70.02;95550.72;5094718;28;1016;-59
2023/10/10 00:37:34;;;;;;;;;;;;;;;12.26;69.42;95540.09;5094537;28;1004;-58
2023/10/10 00:40:07;;;;;;;;;;;;;;;12.06;70.69;95544.03;5094426;28;1111;-58
2023/10/10 00:42:37;;;;;;;;;;;;;;;12.01;70.95;95539.16;5094404;28;1099;-58
2023/10/10 00:45:04;;;;;;;;;;;;;;;11.81;71.83;95540.34;5094290;28;2007;-59
2023/10/10 00:47:38;;;;;;;;;;;;;;;11.78;72.01;95552.25;5094359;28;1199;-58
2023/10/10 00:50:08;;;;;;;;;;;;;;;11.73;72.38;95555.38;5094378;28;1162;-59
2023/10/10 00:52:36;;;;;;;;;;;;;;;11.80;71.95;95560.97;5094268;28;1274;-59
2023/10/10 00:55:04;;;;;;;;;;;;;;;11.87;72.19;95558.47;5093782;28;1088;-59
2023/10/10 00:57:35;;;;;;;;;;;;;;;12.06;71.00;95574.34;5092970;28;1064;-59
2023/10/10 01:00:10;;;;;;;;;;;;;;;12.23;70.74;95567.22;5093148;28;1035;-59
2023/10/10 01:02:39;;;;;;;;;;;;;;;12.43;70.19;95566.97;5094143;28;1083;-59
2023/10/10 01:05:12;;;;;;;;;;;;;;;12.50;69.67;95571.53;5094060;28;1910;-59
2023/10/10 01:07:46;;;;;;;;;;;;;;;12.58;69.39;95572.56;5094219;28;1036;-59
2023/10/10 01:10:16;;;;;;;;;;;;;;;12.42;70.30;95567.97;5094229;28;1038;-58
2023/10/10 01:12:42;;;;;;;;;;;;;;;12.19;71.14;95567.72;5093961;28;1169;-59
2023/10/10 01:15:56;;;;;;;;;;;;;;;11.89;72.25;95573.44;5094182;28;1050;-59
2023/10/10 01:17:57;;;;;;;;;;;;;;;11.91;71.15;95567.91;5093282;28;1161;-59
2023/10/10 01:20:46;;;;;;;;;;;;;;;11.81;71.65;95572.50;5094181;28;1056;-59
2023/10/10 01:23:16;;;;;;;;;;;;;;;11.93;71.62;95567.75;5088319;28;1227;-59
2023/10/10 01:25:43;;;;;;;;;;;;;;;12.11;70.92;95579.22;5093657;28;1910;-58
2023/10/10 01:28:15;;;;;;;;;;;;;;;12.23;70.46;95579.78;5093728;28;1095;-58
2023/10/10 01:30:56;;;;;;;;;;;;;;;12.17;71.76;95581.25;5093720;28;1060;-59
2023/10/10 01:33:25;;;;;;;;;;;;;;;12.13;72.63;95581.75;5073554;28;1095;-59
2023/10/10 01:35:55;;;;;;;;;;;;;;;12.13;72.68;95581.75;5073789;28;1019;-59
2023/10/10 01:38:45;;;;;;;;;;;;;;;12.19;72.42;95581.94;5073415;28;1041;-58
2023/10/10 01:41:31;;;;;;;;;;;;;;;12.09;73.44;95582.06;5073724;28;976;-58
2023/10/10 01:44:08;;;;;;;;;;;;;;;12.16;72.96;95576.06;5073400;28;1993;-59
2023/10/10 01:46:35;;;;;;;;;;;;;;;12.34;72.02;95575.97;5073589;28;992;-59
2023/10/10 01:49:06;;;;;;;;;;;;;;;12.36;72.05;95573.97;5076325;28;1260;-60
2023/10/10 01:51:37;;;;;;;;;;;;;;;12.40;71.90;95572.66;5093812;28;964;-58
2023/10/10 01:54:14;;;;;;;;;;;;;;;12.34;72.32;95570.63;5093530;28;1115;-58
2023/10/10 01:56:40;;;;;;;;;;;;;;;12.18;72.66;95576.75;5093563;28;961;-58
2023/10/10 01:59:13;;;;;;;;;;;;;;;12.13;72.98;95573.72;5093444;28;972;-58
2023/10/10 02:01:40;;;;;;;;;;;;;;;12.02;73.31;95570.31;5093640;28;972;-58
2023/10/10 02:04:07;;;;;;;;;;;;;;;11.96;74.23;95567.44;5093644;28;1918;-58
2023/10/10 02:06:35;;;;;;;;;;;;;;;12.09;74.25;95574.03;5095933;28;1003;-58
2023/10/10 02:12:04;;;;;;;;;;;;;;;12.19;72.97;95578.44;5092644;28;1261;-58
2023/10/10 02:14:30;;;;;;;;;;;;;;;12.19;73.02;95590.00;5097328;28;975;-58
2023/10/10 02:16:59;;;;;;;;;;;;;;;12.26;72.93;95584.84;5097495;28;1050;-58
2023/10/10 02:19:39;;;;;;;;;;;;;;;12.40;72.21;95588.75;5097505;28;961;-58
2023/10/10 02:22:33;;;;;;;;;;;;;;;12.41;71.62;95580.53;5097584;28;999;-58
2023/10/10 02:25:46;;;;;;;;;;;;;;;12.34;72.48;95592.91;5097362;28;1977;-58
2023/10/10 02:27:55;;;;;;;;;;;;;;;12.38;72.47;95588.06;5093886;28;1287;-58
2023/10/10 02:30:34;;;;;;;;;;;;;;;12.30;73.21;95594.22;5097393;28;1007;-58
2023/10/10 02:33:02;;;;;;;;;;;;;;;12.15;74.38;95599.34;5097016;28;1119;-60
2023/10/10 02:35:34;;;;;;;;;;;;;;;12.08;75.02;95593.81;5097192;28;1032;-59
2023/10/10 02:38:04;;;;;;;;;;;;;;;12.04;75.03;95589.75;5096952;28;1091;-58
2023/10/10 02:40:42;;;;;;;;;;;;;;;12.03;74.53;95592.59;5096756;28;1037;-58
2023/10/10 02:43:33;;;;;;;;;;;;;;;12.01;74.95;95578.50;5096889;28;1044;-59
2023/10/10 02:46:00;;;;;;;;;;;;;;;12.18;73.13;95574.91;5095612;28;1028;-58
2023/10/10 02:48:34;;;;;;;;;;;;;;;12.39;71.93;95565.63;5096889;28;1062;-58
2023/10/10 02:51:03;;;;;;;;;;;;;;;12.37;71.97;95584.56;5096991;28;1146;-58
2023/10/10 02:53:32;;;;;;;;;;;;;;;12.26;73.40;95580.31;5096606;28;1051;-58
2023/10/10 02:56:01;;;;;;;;;;;;;;;12.03;74.61;95580.03;5096740;28;1288;-58
2023/10/10 02:58:37;;;;;;;;;;;;;;;11.70;75.89;95576.28;5096336;28;1040;-58
2023/10/10 03:01:04;;;;;;;;;;;;;;;11.68;75.99;95579.09;5096460;28;1056;-58
2023/10/10 03:03:30;;;;;;;;;;;;;;;11.65;76.04;95583.97;5096465;28;1051;-59
2023/10/10 03:05:58;;;;;;;;;;;;;;;11.50;76.19;95589.88;5095167;28;1040;-59
2023/10/10 03:08:51;;;;;;;;;;;;;;;11.53;76.33;95580.69;5096451;28;1042;-60
2023/10/10 03:11:35;;;;;;;;;;;;;;;11.93;74.52;95586.50;5095996;28;1414;-60
2023/10/10 03:14:07;;;;;;;;;;;;;;;11.98;74.43;95581.50;5096148;28;1123;-59
2023/10/10 03:16:59;;;;;;;;;;;;;;;12.03;74.41;95589.91;5095472;28;1103;-59
2023/10/10 03:19:28;;;;;;;;;;;;;;;11.94;74.97;95589.03;5096314;28;1007;-60
2023/10/10 03:27:49;;;;;;;;;;;;;;;11.73;75.41;95581.34;5095887;28;1025;-59
2023/10/10 03:30:17;;;;;;;;;;;;;;;11.75;76.52;95567.78;5095874;28;1129;-59
2023/10/10 03:33:01;;;;;;;;;;;;;;;11.65;76.74;95567.91;5095811;28;1055;-59
2023/10/10 03:35:52;;;;;;;;;;;;;;;11.53;77.46;95569.97;5095714;28;968;-58
2023/10/10 03:38:31;;;;;;;;;;;;;;;11.62;77.17;95569.03;5095635;28;1422;-59
2023/10/10 05:25:13;;;;;;;;;;;;;;;12.23;77.15;95647.63;5093789;28;1959;-58
2023/10/10 05:27:41;;;;;;;;;;;;;;;12.37;76.35;95648.03;5093725;28;1032;-59
2023/10/10 05:30:07;;;;;;;;;;;;;;;12.52;74.82;95643.78;5093608;28;1044;-59
2023/10/10 05:32:33;;;;;;;;;;;;;;;12.62;74.28;95640.97;5093746;28;972;-59
2023/10/10 05:35:01;;;;;;;;;;;;;;;12.71;74.38;95645.38;5093808;28;968;-59
2023/10/10 05:37:27;;;;;;;;;;;;;;;12.70;75.45;95647.19;5093634;28;968;-59
2023/10/10 05:39:56;;;;;;;;;;;;;;;12.68;74.69;95646.50;5093639;28;1117;-58
2023/10/10 05:42:25;;;;;;;;;;;;;;;12.72;74.55;95651.56;5092519;28;1055;-59
2023/10/10 05:44:51;;;;;;;;;;;;;;;12.96;72.92;95654.34;5093241;28;1914;-59
2023/10/10 05:47:17;;;;;;;;;;;;;;;13.16;71.50;95654.03;5092084;28;1192;-59
2023/10/10 05:49:43;;;;;;;;;;;;;;;13.47;69.62;95656.97;5093592;28;1232;-59
2023/10/10 05:52:09;;;;;;;;;;;;;;;13.74;69.19;95650.44;5093399;28;1024;-59
2023/10/10 05:54:36;;;;;;;;;;;;;;;13.63;68.96;95659.66;5093672;28;1139;-59
2023/10/10 05:57:02;;;;;;;;;;;;;;;13.60;69.45;95661.84;5093363;28;1052;-59
2023/10/10 05:59:28;;;;;;;;;;;;;;;14.61;65.72;95655.19;5093294;28;976;-59
2023/10/10 06:01:54;;;;;;;;;;;;;;;15.34;61.45;95651.25;5093257;28;957;-58
2023/10/10 06:04:21;;;;;;;;;;;;;;;15.69;60.94;95659.78;5093385;28;1906;-59
2023/10/10 06:06:47;;;;;;;;;;;;;;;16.72;57.38;95663.69;5093484;28;1112;-59
2023/10/10 06:09:18;;;;;;;;;;;;;;;16.07;57.66;95670.63;5093346;28;1003;-59
2023/10/10 06:11:45;;;;;;;;;;;;;;;17.55;53.97;95675.13;5093411;28;1011;-59
2023/10/10 06:14:11;;;;;;;;;;;;;;;19.48;48.64;95682.94;5093038;28;1565;-59
2023/10/10 06:16:37;;;;;;;;;;;;;;;20.08;46.74;95678.50;5093556;28;953;-58
2023/10/10 06:19:03;;;;;;;;;;;;;;;18.53;50.99;95663.69;5093249;28;1095;-58
2023/10/10 06:21:29;;;;;;;;;;;;;;;17.38;54.58;95641.25;5093279;28;972;-58
2023/10/10 06:23:55;;;;;;;;;;;;;;;18.40;52.62;95645.50;5092080;28;1998;-58
2023/10/10 06:26:21;;;;;;;;;;;;;;;19.29;49.28;95658.31;5093340;28;985;-59
2023/10/10 06:28:51;;;;;;;;;;;;;;;19.99;47.35;95668.06;5093372;28;979;-59
2023/10/10 06:31:19;;;;;;;;;;;;;;;20.13;47.04;95663.47;5093050;28;1060;-59
2023/10/10 06:33:52;;;;;;;;;;;;;;;20.26;46.39;95663.47;5093159;28;1558;-58
2023/10/10 06:41:36;;;;;;;;;;;;;;;20.81;46.17;95663.22;5093233;28;995;-59
2023/10/10 06:44:04;;;;;;;;;;;;;;;20.12;48.28;95648.25;5092814;28;1983;-59
2023/10/10 06:46:37;;;;;;;;;;;;;;;19.89;48.78;95646.78;5092930;28;1039;-59
2023/10/10 06:49:06;;;;;;;;;;;;;;;19.75;49.30;95662.22;5092909;28;1205;-58
2023/10/10 06:51:39;;;;;;;;;;;;;;;20.00;49.44;95659.72;5093467;28;1044;-59
2023/10/10 06:54:09;;;;;;;;;;;;;;;20.08;48.96;95651.38;5096654;28;1846;-59
2023/10/10 06:56:45;;;;;;;;;;;;;;;20.50;48.14;95653.84;5096903;28;1152;-59
2023/10/10 06:59:20;;;;;;;;;;;;;;;20.62;47.29;95662.22;5096471;28;1036;-59
2023/10/10 07:01:46;;;;;;;;;;;;;;;20.44;47.81;95652.81;5096550;28;1103;-58
2023/10/10 07:04:13;;;;;;;;;;;;;;;20.29;48.03;95654.94;5096419;28;1906;-59
2023/10/10 07:06:43;;;;;;;;;;;;;;;20.49;46.66;95657.63;5080100;28;2862;-59
2023/10/10 07:09:27;;;;;;;;;;;;;;;20.82;47.44;95659.47;5076386;28;1012;-59
2023/10/10 07:11:53;;;;;;;;;;;;;;;20.89;46.71;95673.03;5076315;28;1156;-59
2023/10/10 07:14:20;;;;;;;;;;;;;;;21.09;45.65;95665.66;5076019;28;1047;-59
2023/10/10 07:16:46;;;;;;;;;;;;;;;20.89;47.38;95656.72;5075894;28;1096;-59
2023/10/10 07:19:30;;;;;;;;;;;;;;;20.90;46.89;95672.00;5075822;28;1048;-59
2023/10/10 07:21:56;;;;;;;;;;;;;;;20.80;46.54;95661.59;5076118;28;1023;-59
2023/10/10 07:24:28;;;;;;;;;;;;;;;20.71;46.52;95660.97;5075896;28;1976;-59
2023/10/10 07:27:10;;;;;;;;;;;;;;;20.85;46.05;95662.63;5075887;28;1000;-58
2023/10/10 07:32:18;;;;;;;;;;;;;;;20.92;45.34;95645.44;5075634;28;1037;-58
2023/10/10 07:34:50;;;;;;;;;;;;;;;20.99;44.70;95651.69;5075054;28;2482;-57
2023/10/10 07:37:22;;;;;;;;;;;;;;;21.39;44.11;95651.53;5075463;28;1107;-57
2023/10/10 07:42:58;;;;;;;;;;;;;;;21.53;44.30;95655.91;5069819;28;1275;-58
2023/10/10 07:45:29;;;;;;;;;;;;;;;21.88;43.42;95654.66;5075158;28;1973;-58
2023/10/10 07:50:27;;;;;;;;;;;;;;;22.15;43.36;95649.84;5089487;28;1181;-57
2023/10/10 07:52:54;;;;;;;;;;;;;;;22.25;43.16;95641.16;5095776;28;980;-57
2023/10/10 07:55:22;;;;;;;;;;;;;;;22.25;43.34;95639.31;5095575;28;1035;-57
2023/10/10 07:57:59;;;;;;;;;;;;;;;22.42;43.76;95629.53;5095361;28;1107;-57
2023/10/10 08:00:35;;;;;;;;;;;;;;;22.67;43.76;95636.84;5095167;28;1051;-57
2023/10/10 08:03:19;;;;;;;;;;;;;;;22.78;43.23;95632.50;5095534;28;960;-57
2023/10/10 08:05:47;;;;;;;;;;;;;;;22.87;44.22;95625.72;5095488;28;1976;-57
2023/10/10 08:08:17;;;;;;;;;;;;;;;23.19;43.02;95620.97;5095364;28;984;-56
2023/10/10 08:10:46;;;;;;;;;;;;;;;23.55;42.36;95626.59;5095409;28;1023;-57
2023/10/10 08:13:12;;;;;;;;;;;;;;;23.76;42.34;95645.19;5095056;28;1031;-57
2023/10/10 08:23:31;;;;;;;;;;;;;;;23.02;43.38;95638.16;5095091;28;1077;-58
2023/10/10 08:25:57;;;;;;;;;;;;;;;22.63;45.41;95623.88;5094646;28;1906;-58
2023/10/10 08:28:23;;;;;;;;;;;;;;;22.27;46.13;95615.44;5094688;28;1020;-58
2023/10/10 08:30:50;;;;;;;;;;;;;;;21.88;46.63;95617.38;5094964;28;952;-58
2023/10/10 08:33:16;;;;;;;;;;;;;;;21.76;47.77;95610.94;5094797;28;1008;-57
2023/10/10 08:35:42;;;;;;;;;;;;;;;21.74;48.11;95618.50;5094608;28;1107;-58
2023/10/10 08:38:13;;;;;;;;;;;;;;;21.72;47.20;95621.47;5094545;28;1055;-57
2023/10/10 08:40:40;;;;;;;;;;;;;;;21.72;47.99;95628.78;5094880;28;1007;-58
2023/10/10 08:43:09;;;;;;;;;;;;;;;21.56;49.53;95622.81;5094738;28;1059;-57
2023/10/10 08:45:43;;;;;;;;;;;;;;;21.42;48.29;95619.31;5094309;28;1898;-58
2023/10/10 08:48:15;;;;;;;;;;;;;;;21.34;48.99;95616.00;5094217;28;1052;-58
2023/10/10 08:50:42;;;;;;;;;;;;;;;21.36;48.92;95624.75;5094480;28;1205;-58
2023/10/10 08:53:14;;;;;;;;;;;;;;;21.36;48.93;95627.47;5094375;28;1383;-58
2023/10/10 08:55:43;;;;;;;;;;;;;;;21.31;50.36;95619.16;5094327;28;1095;-58
2023/10/10 08:58:10;;;;;;;;;;;;;;;21.26;48.73;95631.50;5094243;28;1115;-58
2023/10/10 09:00:37;;;;;;;;;;;;;;;21.33;48.54;95622.50;5094174;28;1068;-57
2023/10/10 09:03:03;;;;;;;;;;;;;;;21.17;48.26;95630.09;5094282;28;956;-57
2023/10/10 09:05:29;;;;;;;;;;;;;;;21.24;48.63;95636.31;5094028;28;1980;-58
2023/10/10 09:08:05;;;;;;;;;;;;;;;21.46;48.61;95636.06;5094007;28;1104;-58
2023/10/10 09:10:39;;;;;;;;;;;;;;;21.45;48.89;95637.09;5094300;28;968;-58
2023/10/10 09:13:07;;;;;;;;;;;;;;;21.22;48.52;95649.31;5094194;28;1039;-57
2023/10/10 09:15:34;;;;;;;;;;;;;;;20.90;50.13;95642.13;5093734;28;975;-58
2023/10/10 09:18:17;;;;;;;;;;;;;;;20.72;50.90;95638.19;5094017;28;1003;-58
2023/10/10 09:20:46;;;;;;;;;;;;;;;20.70;50.68;95647.59;5093892;28;1028;-58
2023/10/10 09:23:23;;;;;;;;;;;;;;;20.90;49.87;95651.09;5093922;28;980;-58
2023/10/10 09:28:55;;;;;;;;;;;;;;;21.11;50.32;95649.97;5093650;28;1088;-58
2023/10/10 09:31:31;;;;;;;;;;;;;;;21.17;49.95;95651.00;5093896;28;968;-59
2023/10/10 09:33:57;;;;;;;;;;;;;;;21.19;50.13;95655.19;5093996;28;1047;-59
2023/10/10 09:36:26;;;;;;;;;;;;;;;21.36;49.95;95647.38;5093563;28;1027;-59
2023/10/10 09:39:08;;;;;;;;;;;;;;;21.58;48.98;95647.06;5093560;28;953;-58
2023/10/10 09:44:26;;;;;;;;;;;;;;;21.55;49.70;95645.63;5093412;28;1997;-59
2023/10/10 09:49:44;;;;;;;;;;;;;;;22.27;47.12;95656.28;5093178;28;1173;-59
2023/10/10 09:57:53;;;;;;;;;;;;;;;22.80;46.95;95652.19;5093884;28;984;-59
2023/10/10 10:00:30;;;;;;;;;;;;;;;22.65;46.25;95643.56;5093458;28;968;-59
2023/10/10 10:02:59;;;;;;;;;;;;;;;22.58;46.48;95646.38;5093541;28;1015;-58
2023/10/10 10:05:28;;;;;;;;;;;;;;;22.86;47.02;95639.56;5093167;28;1986;-59
2023/10/10 10:07:57;;;;;;;;;;;;;;;23.18;44.90;95643.84;5093248;28;972;-59
2023/10/10 10:10:33;;;;;;;;;;;;;;;23.52;43.56;95635.22;5093363;28;960;-59
2023/10/10 10:13:02;;;;;;;;;;;;;;;23.67;42.84;95638.38;5093791;28;1054;-58
2023/10/10 10:15:48;;;;;;;;;;;;;;;23.49;42.80;95633.81;5093028;28;1040;-59
2023/10/10 10:18:26;;;;;;;;;;;;;;;23.58;42.16;95637.03;5093191;28;1000;-59
2023/10/10 10:23:45;;;;;;;;;;;;;;;23.43;42.37;95623.81;5093065;28;1187;-59
2023/10/10 10:26:11;;;;;;;;;;;;;;;22.84;43.44;95609.81;5093187;28;1909;-59
2023/10/10 10:28:41;;;;;;;;;;;;;;;22.70;44.11;95613.75;5097139;28;1047;-58
2023/10/10 10:31:16;;;;;;;;;;;;;;;22.86;43.72;95613.16;5096941;28;1123;-58
2023/10/10 10:34:05;;;;;;;;;;;;;;;23.13;43.68;95613.69;5096888;28;1039;-58
2023/10/10 10:36:45;;;;;;;;;;;;;;;22.91;43.48;95615.19;5097019;28;1039;-58
2023/10/10 10:39:20;;;;;;;;;;;;;;;22.53;44.03;95608.03;5096996;28;1055;-58
2023/10/10 10:41:55;;;;;;;;;;;;;;;22.21;44.76;95600.78;5096755;28;1121;-58
2023/10/10 10:44:27;;;;;;;;;;;;;;;21.93;45.83;95590.31;5096402;28;1901;-59
2023/10/10 10:46:56;;;;;;;;;;;;;;;21.88;46.11;95598.31;5096883;28;976;-58
2023/10/10 10:49:22;;;;;;;;;;;;;;;21.94;46.83;95591.97;5096668;28;1221;-58
2023/10/10 10:52:07;;;;;;;;;;;;;;;22.29;45.46;95590.66;5096541;28;1039;-59
2023/10/10 10:54:37;;;;;;;;;;;;;;;22.28;45.53;95589.00;5096388;28;1028;-59
2023/10/10 10:57:03;;;;;;;;;;;;;;;22.11;46.18;95586.81;5096685;28;991;-59
2023/10/10 10:59:36;;;;;;;;;;;;;;;22.06;46.49;95593.97;5096276;28;1103;-59
2023/10/10 11:02:15;;;;;;;;;;;;;;;21.91;47.23;95597.88;5096678;28;972;-59
2023/10/10 11:04:47;;;;;;;;;;;;;;;21.61;46.71;95597.69;5096320;28;1993;-59
2023/10/10 11:07:26;;;;;;;;;;;;;;;21.43;47.31;95599.19;5096140;28;983;-59
2023/10/10 11:10:06;;;;;;;;;;;;;;;21.33;47.19;95596.13;5096210;28;1036;-59
2023/10/10 11:12:36;;;;;;;;;;;;;;;21.40;47.34;95590.66;5096205;28;1023;-59
2023/10/10 11:15:07;;;;;;;;;;;;;;;21.41;47.45;95595.03;5096422;28;972;-59
2023/10/10 11:17:45;;;;;;;;;;;;;;;21.48;47.57;95595.88;5095961;28;968;-58
2023/10/10 11:20:28;;;;;;;;;;;;;;;21.55;47.34;95584.94;5095948;28;1072;-59
2023/10/10 11:23:06;;;;;;;;;;;;;;;21.67;48.04;95595.97;5096295;28;1043;-59
2023/10/10 11:25:41;;;;;;;;;;;;;;;21.76;46.96;95603.63;5096027;28;1975;-59
2023/10/10 11:28:21;;;;;;;;;;;;;;;21.77;46.46;95601.75;5096178;28;952;-59
2023/10/10 11:30:49;;;;;;;;;;;;;;;22.09;46.33;95593.56;5095860;28;1028;-59
2023/10/10 11:33:17;;;;;;;;;;;;;;;22.14;46.20;95589.09;5095937;28;964;-59
2023/10/10 11:36:01;;;;;;;;;;;;;;;22.11;45.69;95592.25;5095680;28;1056;-59
2023/10/10 11:38:35;;;;;;;;;;;;;;;22.07;45.84;95590.22;5095185;28;1043;-58
2023/10/10 11:41:08;;;;;;;;;;;;;;;21.96;45.72;95591.75;5095857;28;1007;-58
2023/10/10 11:43:37;;;;;;;;;;;;;;;21.96;45.93;95587.16;5095539;28;1081;-59
2023/10/10 11:46:03;;;;;;;;;;;;;;;22.02;45.54;95586.28;5095737;28;1898;-58
2023/10/10 11:48:40;;;;;;;;;;;;;;;22.11;45.93;95581.38;5095682;28;1054;-58
2023/10/10 11:51:06;;;;;;;;;;;;;;;22.03;45.11;95587.09;5095348;28;1185;-58
2023/10/10 11:53:36;;;;;;;;;;;;;;;22.15;46.28;95590.75;5095489;28;972;-58
2023/10/10 11:56:04;;;;;;;;;;;;;;;22.40;45.69;95585.34;5095345;28;1087;-59
2023/10/10 11:58:36;;;;;;;;;;;;;;;22.40;45.25;95581.75;5095307;28;1059;-58
2023/10/10 12:01:05;;;;;;;;;;;;;;;22.73;44.48;95588.78;5095254;28;1092;-58
2023/10/10 12:06:14;;;;;;;;;;;;;;;22.89;43.96;95577.25;5095388;28;1906;-58
2023/10/10 12:08:48;;;;;;;;;;;;;;;22.79;43.23;95580.50;5095116;28;1083;-58
2023/10/10 12:11:21;;;;;;;;;;;;;;;22.71;42.24;95586.28;5095056;28;983;-58
2023/10/10 12:13:48;;;;;;;;;;;;;;;22.51;42.42;95583.75;5095257;28;1127;-59
2023/10/10 12:16:15;;;;;;;;;;;;;;;22.39;41.66;95589.09;5095116;28;988;-59
2023/10/10 12:18:49;;;;;;;;;;;;;;;22.25;41.68;95583.97;5095223;28;1056;-58
2023/10/10 12:21:20;;;;;;;;;;;;;;;22.18;41.66;95582.16;5094988;28;1015;-59
2023/10/10 12:23:52;;;;;;;;;;;;;;;22.22;41.73;95582.53;5094873;28;1044;-58
2023/10/10 12:26:18;;;;;;;;;;;;;;;22.29;41.42;95586.06;5094646;28;1039;-59
2023/10/10 12:28:47;;;;;;;;;;;;;;;22.28;41.83;95586.28;5093098;28;2556;-59
2023/10/10 12:31:16;;;;;;;;;;;;;;;22.28;41.50;95576.22;5074600;28;1020;-58
2023/10/10 12:33:45;;;;;;;;;;;;;;;22.38;41.00;95583.88;5074509;28;1047;-59
2023/10/10 12:36:11;;;;;;;;;;;;;;;22.32;40.67;95580.16;5074185;28;1044;-59
2023/10/10 12:38:38;;;;;;;;;;;;;;;22.24;40.34;95574.97;5074225;28;1043;-58
2023/10/10 12:41:05;;;;;;;;;;;;;;;22.20;40.34;95571.88;5074402;28;1039;-58
2023/10/10 12:43:31;;;;;;;;;;;;;;;22.25;40.33;95568.50;5073916;28;1070;-59
2023/10/10 12:46:00;;;;;;;;;;;;;;;22.18;39.93;95575.88;5074289;28;2035;-59
2023/10/10 12:48:28;;;;;;;;;;;;;;;21.99;40.14;95580.44;5073932;28;1041;-59
2023/10/10 12:50:54;;;;;;;;;;;;;;;21.91;40.42;95578.84;5092031;28;1166;-59
2023/10/10 12:53:20;;;;;;;;;;;;;;;21.96;40.51;95578.97;5094107;28;912;-59
2023/10/10 12:55:52;;;;;;;;;;;;;;;22.03;40.70;95574.31;5094036;28;1040;-59
2023/10/10 12:58:22;;;;;;;;;;;;;;;22.12;40.39;95574.03;5094037;28;1107;-59
2023/10/10 13:00:52;;;;;;;;;;;;;;;22.25;40.69;95573.94;5094083;28;1091;-59
2023/10/10 13:03:19;;;;;;;;;;;;;;;22.37;40.78;95566.72;5094119;28;1010;-59
2023/10/10 13:05:51;;;;;;;;;;;;;;;22.39;40.63;95567.31;5093993;28;1999;-59
2023/10/10 13:08:20;;;;;;;;;;;;;;;22.38;40.03;95568.34;5094071;28;996;-59
2023/10/10 13:10:54;;;;;;;;;;;;;;;22.38;40.68;95567.53;5093906;28;1095;-59
2023/10/10 13:13:31;;;;;;;;;;;;;;;22.37;40.63;95569.44;5094076;28;956;-59
2023/10/10 13:18:45;;;;;;;;;;;;;;;22.30;40.52;95568.66;5093774;28;1043;-59
2023/10/10 13:21:11;;;;;;;;;;;;;;;22.41;39.51;95564.38;5093978;28;1044;-59
2023/10/10 13:23:41;;;;;;;;;;;;;;;22.45;39.62;95559.31;5093758;28;1055;-59
2023/10/10 13:26:08;;;;;;;;;;;;;;;22.64;39.32;95569.16;5093727;28;1967;-59
2023/10/10 13:28:36;;;;;;;;;;;;;;;22.72;38.93;95573.47;5093754;28;960;-57
2023/10/10 13:31:02;;;;;;;;;;;;;;;22.78;38.52;95569.81;5093607;28;1028;-59
2023/10/10 13:33:28;;;;;;;;;;;;;;;22.83;39.24;95564.53;5093499;28;1019;-59
2023/10/10 13:35:54;;;;;;;;;;;;;;;22.81;39.10;95567.47;5093906;28;976;-59
2023/10/10 13:38:20;;;;;;;;;;;;;;;22.74;39.87;95569.44;5093569;28;1055;-58
2023/10/10 13:40:48;;;;;;;;;;;;;;;22.54;40.34;95558.78;5093661;28;976;-60
2023/10/10 13:43:18;;;;;;;;;;;;;;;22.44;40.76;95573.97;5093361;28;1215;-62
2023/10/10 13:45:51;;;;;;;;;;;;;;;22.23;40.94;95555.09;5092386;28;1990;-62
2023/10/10 13:48:18;;;;;;;;;;;;;;;22.05;40.84;95551.50;5093734;28;1039;-59
2023/10/10 13:50:45;;;;;;;;;;;;;;;21.90;41.90;95563.53;5093395;28;1181;-62
2023/10/10 13:53:12;;;;;;;;;;;;;;;21.89;41.22;95559.13;5093695;28;976;-62
2023/10/10 13:55:38;;;;;;;;;;;;;;;21.84;41.87;95554.38;5093473;28;1506;-61
2023/10/10 13:58:10;;;;;;;;;;;;;;;21.75;41.98;95568.47;5093445;28;1037;-60
2023/10/10 14:00:37;;;;;;;;;;;;;;;21.71;41.69;95559.09;5094512;28;952;-61
2023/10/10 14:03:03;;;;;;;;;;;;;;;21.59;42.10;95562.53;5097895;28;968;-61
2023/10/10 14:05:32;;;;;;;;;;;;;;;21.57;42.28;95572.78;5097545;28;1994;-61
2023/10/10 14:07:59;;;;;;;;;;;;;;;21.57;42.26;95564.63;5097535;28;1032;-60
2023/10/10 14:10:25;;;;;;;;;;;;;;;21.50;42.75;95572.00;5097446;28;1099;-61
2023/10/10 14:12:50;;;;;;;;;;;;;;;21.50;42.78;95569.28;5097417;28;1087;-58
2023/10/10 14:15:18;;;;;;;;;;;;;;;21.49;42.57;95567.59;5097560;28;1129;-59
2023/10/10 14:17:48;;;;;;;;;;;;;;;21.57;42.13;95578.22;5096420;28;944;-59
2023/10/10 14:20:21;;;;;;;;;;;;;;;21.55;42.09;95569.47;5097361;28;972;-58
2023/10/10 14:22:49;;;;;;;;;;;;;;;21.54;42.86;95570.50;5097434;28;1039;-60
2023/10/10 14:25:17;;;;;;;;;;;;;;;21.47;42.23;95568.88;5096998;28;1914;-58
2023/10/10 14:27:44;;;;;;;;;;;;;;;21.41;42.01;95573.28;5097054;28;1072;-59
2023/10/10 14:30:23;;;;;;;;;;;;;;;21.40;42.54;95571.63;5097319;28;1055;-57
2023/10/10 14:32:55;;;;;;;;;;;;;;;21.32;43.27;95574.59;5097407;28;969;-59
2023/10/10 14:35:24;;;;;;;;;;;;;;;21.33;43.31;95574.38;5097099;28;976;-59
2023/10/10 14:37:55;;;;;;;;;;;;;;;21.34;43.06;95577.91;5097221;28;968;-60
2023/10/10 14:40:23;;;;;;;;;;;;;;;21.38;43.20;95577.28;5096863;28;1044;-60
2023/10/10 14:42:52;;;;;;;;;;;;;;;21.34;42.95;95583.34;5096864;28;1032;-60
2023/10/10 14:45:24;;;;;;;;;;;;;;;21.32;43.17;95583.56;5096536;28;1934;-61
2023/10/10 14:47:51;;;;;;;;;;;;;;;21.32;42.81;95591.72;5095596;28;1032;-61
2023/10/10 14:50:24;;;;;;;;;;;;;;;21.33;42.91;95598.03;5096813;28;1209;-61
2023/10/10 14:52:50;;;;;;;;;;;;;;;21.32;43.30;95590.91;5096612;28;1050;-62
2023/10/10 14:55:27;;;;;;;;;;;;;;;21.33;43.03;95592.59;5096823;28;1003;-61
2023/10/10 14:57:56;;;;;;;;;;;;;;;21.31;43.15;95590.06;5096772;28;985;-62
2023/10/10 15:00:28;;;;;;;;;;;;;;;21.28;43.84;95595.94;5096752;28;1007;-61
2023/10/10 15:02:54;;;;;;;;;;;;;;;21.17;43.93;95593.91;5096475;28;1032;-59
2023/10/10 15:05:21;;;;;;;;;;;;;;;21.13;44.36;95609.81;5096265;28;1913;-59
2023/10/10 15:07:47;;;;;;;;;;;;;;;21.07;43.93;95607.97;5096663;28;1044;-59
2023/10/10 15:10:13;;;;;;;;;;;;;;;21.05;43.99;95601.91;5096452;28;980;-59
2023/10/10 15:12:39;;;;;;;;;;;;;;;20.98;44.30;95617.41;5095553;28;1032;-59
2023/10/10 15:15:05;;;;;;;;;;;;;;;20.85;44.90;95619.13;5096260;28;1040;-59
2023/10/10 15:17:32;;;;;;;;;;;;;;;20.78;44.70;95621.03;5096099;28;1040;-58
2023/10/10 15:19:58;;;;;;;;;;;;;;;20.67;46.00;95627.94;5096108;28;1028;-62
2023/10/10 15:22:25;;;;;;;;;;;;;;;20.59;45.50;95625.44;5096248;28;976;-61
2023/10/10 15:24:52;;;;;;;;;;;;;;;20.60;45.80;95632.59;5096306;28;1914;-61
2023/10/10 15:27:19;;;;;;;;;;;;;;;20.56;46.09;95631.28;5094829;28;957;-61
2023/10/10 15:29:45;;;;;;;;;;;;;;;20.50;46.57;95632.13;5095939;28;1099;-61
2023/10/10 15:32:14;;;;;;;;;;;;;;;20.48;46.74;95635.06;5096118;28;1144;-60
2023/10/10 15:34:40;;;;;;;;;;;;;;;20.44;47.32;95641.97;5095850;28;961;-62
2023/10/10 15:37:14;;;;;;;;;;;;;;;20.38;47.21;95637.38;5096071;28;1035;-60
2023/10/10 15:39:41;;;;;;;;;;;;;;;20.32;48.31;95642.78;5096007;28;1000;-60
2023/10/10 15:42:07;;;;;;;;;;;;;;;20.28;48.61;95645.13;5096002;28;984;-62
2023/10/10 15:44:34;;;;;;;;;;;;;;;20.35;47.60;95645.94;5095535;28;1983;-61
2023/10/10 15:47:01;;;;;;;;;;;;;;;20.35;48.16;95640.50;5095611;28;1060;-60
2023/10/10 15:49:27;;;;;;;;;;;;;;;20.21;48.68;95645.13;5095702;28;1201;-60
2023/10/10 15:51:54;;;;;;;;;;;;;;;20.06;48.66;95645.31;5095845;28;1004;-59
2023/10/10 15:54:20;;;;;;;;;;;;;;;20.02;48.49;95646.78;5094407;28;979;-59